Time;durP1;ratioP1;P1;durP2;ratioP2;P2;SDS_P1;SDS_P2;PMS_P1;PMS_P2;Temp;Humidity;BMP_temperature;BMP_pressure;BME280_temperature;BME280_humidity;BME280_pressure;Samples;Min_cycle;Max_cycle;Signal;HPM_P1;HPM_P2
2023/07/21 00:01:52;;;;;;;3.17;2.35;;;;;;;;;;5019044;28;20041;-73
2023/07/21 00:04:17;;;;;;;4.70;2.03;;;;;;;;;;5019715;28;20535;-72
2023/07/21 00:06:43;;;;;;;3.22;2.25;;;;;;;;;;5031730;28;20160;-72
2023/07/21 00:09:11;;;;;;;2.67;2.00;;;;;;;;;;5016972;28;20068;-73
2023/07/21 00:11:38;;;;;;;2.65;2.05;;;;;;;;;;4999171;28;20036;-73
2023/07/21 00:14:05;;;;;;;4.45;2.38;;;;;;;;;;5019889;28;20037;-72
2023/07/21 00:16:33;;;;;;;2.55;2.20;;;;;;;;;;5019055;28;20540;-71
2023/07/21 00:18:58;;;;;;;4.78;2.13;;;;;;;;;;5020659;28;20033;-72
2023/07/21 00:21:24;;;;;;;3.80;2.10;;;;;;;;;;5021347;28;20041;-73
2023/07/21 00:23:50;;;;;;;3.22;2.10;;;;;;;;;;5025040;28;20043;-73
2023/07/21 00:26:18;;;;;;;3.08;2.28;;;;;;;;;;5012274;28;20033;-73
2023/07/21 00:28:46;;;;;;;2.50;2.00;;;;;;;;;;5013896;28;20033;-73
2023/07/21 00:31:11;;;;;;;2.22;1.90;;;;;;;;;;5025538;28;20029;-73
2023/07/21 00:33:37;;;;;;;2.75;1.90;;;;;;;;;;5028256;28;20044;-73
2023/07/21 00:36:04;;;;;;;3.13;1.80;;;;;;;;;;5025789;28;20039;-72
2023/07/21 00:38:31;;;;;;;3.78;2.00;;;;;;;;;;5011653;28;20044;-73
2023/07/21 00:40:56;;;;;;;2.25;1.80;;;;;;;;;;5005657;28;20041;-73
2023/07/21 00:43:22;;;;;;;3.15;2.00;;;;;;;;;;5005298;28;20041;-73
2023/07/21 00:45:49;;;;;;;2.92;2.00;;;;;;;;;;5002758;28;20095;-73
2023/07/21 00:48:17;;;;;;;2.60;2.08;;;;;;;;;;5004240;28;20049;-72
2023/07/21 00:50:47;;;;;;;2.78;2.10;;;;;;;;;;5005798;28;20506;-73
2023/07/21 00:53:15;;;;;;;3.08;2.00;;;;;;;;;;5021630;28;20033;-73
2023/07/21 00:55:41;;;;;;;2.92;1.88;;;;;;;;;;5051643;28;20047;-74
2023/07/21 00:58:07;;;;;;;3.33;1.98;;;;;;;;;;5026420;28;20029;-74
2023/07/21 01:00:33;;;;;;;2.80;2.00;;;;;;;;;;5011336;28;20839;-74
2023/07/21 01:03:00;;;;;;;3.28;2.10;;;;;;;;;;5006181;28;20494;-74
2023/07/21 01:05:29;;;;;;;3.30;2.03;;;;;;;;;;5005257;28;20025;-74
2023/07/21 01:07:55;;;;;;;3.03;2.05;;;;;;;;;;5052785;28;20045;-74
2023/07/21 01:10:21;;;;;;;2.75;2.13;;;;;;;;;;5023484;28;20048;-74
2023/07/21 01:12:48;;;;;;;3.42;2.10;;;;;;;;;;5039624;28;20044;-74
2023/07/21 01:15:13;;;;;;;3.65;2.30;;;;;;;;;;5055542;28;20094;-74
2023/07/21 01:17:39;;;;;;;3.67;2.22;;;;;;;;;;5024920;28;20037;-74
2023/07/21 01:20:06;;;;;;;3.15;2.10;;;;;;;;;;5015352;28;20025;-73
2023/07/21 01:22:52;;;;;;;2.92;2.10;;;;;;;;;;4996292;28;20051;-73
2023/07/21 01:25:18;;;;;;;3.22;2.30;;;;;;;;;;4998690;28;20056;-73
2023/07/21 01:27:46;;;;;;;2.65;2.20;;;;;;;;;;5015078;28;20041;-73
2023/07/21 01:30:12;;;;;;;2.28;1.95;;;;;;;;;;5012339;28;20423;-74
2023/07/21 01:32:39;;;;;;;2.70;1.90;;;;;;;;;;5026194;28;22683;-73
2023/07/21 01:35:08;;;;;;;3.58;2.08;;;;;;;;;;5015918;28;20159;-73
2023/07/21 01:37:43;;;;;;;4.00;2.00;;;;;;;;;;5015530;28;20037;-73
2023/07/21 01:40:10;;;;;;;3.58;2.35;;;;;;;;;;5012902;28;20989;-73
2023/07/21 01:42:36;;;;;;;2.53;2.10;;;;;;;;;;4997999;28;20132;-73
2023/07/21 01:45:05;;;;;;;2.80;2.30;;;;;;;;;;4977942;28;20090;-72
2023/07/21 01:47:32;;;;;;;3.25;2.10;;;;;;;;;;4998624;28;20029;-73
2023/07/21 01:49:58;;;;;;;5.50;2.35;;;;;;;;;;4997717;28;20052;-73
2023/07/21 01:52:24;;;;;;;3.28;2.13;;;;;;;;;;5012666;28;20037;-74
2023/07/21 01:54:56;;;;;;;3.08;2.40;;;;;;;;;;4999140;28;20524;-73
2023/07/21 01:57:26;;;;;;;2.75;2.05;;;;;;;;;;4995978;28;20065;-73
2023/07/21 01:59:51;;;;;;;2.50;2.10;;;;;;;;;;4998634;28;21624;-73
2023/07/21 02:02:18;;;;;;;3.15;2.25;;;;;;;;;;4997513;28;20036;-73
2023/07/21 02:04:53;;;;;;;3.67;2.10;;;;;;;;;;4998511;28;20064;-72
2023/07/21 02:07:24;;;;;;;4.13;2.38;;;;;;;;;;4999962;28;20044;-74
2023/07/21 02:09:52;;;;;;;4.13;2.20;;;;;;;;;;5025627;28;20171;-74
2023/07/21 02:12:17;;;;;;;2.58;2.10;;;;;;;;;;5028234;28;20498;-75
2023/07/21 02:14:45;;;;;;;2.88;2.50;;;;;;;;;;5026128;28;20086;-74
2023/07/21 02:17:11;;;;;;;3.80;2.35;;;;;;;;;;5033200;28;20056;-74
2023/07/21 02:19:36;;;;;;;3.15;2.20;;;;;;;;;;5063123;28;20030;-74
2023/07/21 02:22:04;;;;;;;2.45;2.00;;;;;;;;;;5062944;28;20041;-74
2023/07/21 02:24:29;;;;;;;4.60;2.30;;;;;;;;;;5020085;28;20052;-74
2023/07/21 02:26:54;;;;;;;2.58;1.73;;;;;;;;;;5023277;28;20670;-73
2023/07/21 02:29:20;;;;;;;2.88;2.25;;;;;;;;;;5051337;28;20311;-73
2023/07/21 02:31:45;;;;;;;3.78;2.13;;;;;;;;;;5021724;28;20041;-73
2023/07/21 02:34:11;;;;;;;3.75;2.63;;;;;;;;;;5016396;28;20028;-73
2023/07/21 02:36:36;;;;;;;3.95;2.35;;;;;;;;;;5015078;28;20033;-73
2023/07/21 02:39:02;;;;;;;2.65;1.88;;;;;;;;;;5021232;28;20033;-72
2023/07/21 02:41:27;;;;;;;2.88;1.90;;;;;;;;;;5021922;28;20120;-73
2023/07/21 02:43:52;;;;;;;4.50;2.20;;;;;;;;;;5020455;28;20486;-73
2023/07/21 02:46:17;;;;;;;2.65;2.10;;;;;;;;;;5019379;28;20029;-73
2023/07/21 02:48:43;;;;;;;2.58;2.10;;;;;;;;;;5020016;28;20081;-73
2023/07/21 02:51:08;;;;;;;2.35;2.08;;;;;;;;;;5050720;28;20044;-73
2023/07/21 02:53:34;;;;;;;3.83;2.22;;;;;;;;;;5019246;28;20040;-73
2023/07/21 02:56:05;;;;;;;3.47;1.80;;;;;;;;;;5052014;28;20029;-73
2023/07/21 02:58:32;;;;;;;3.28;2.40;;;;;;;;;;5020060;28;20025;-72
2023/07/21 03:00:58;;;;;;;4.18;2.30;;;;;;;;;;5019385;28;20080;-72
2023/07/21 03:03:25;;;;;;;4.10;2.10;;;;;;;;;;5029276;28;20034;-73
2023/07/21 03:05:51;;;;;;;4.13;2.30;;;;;;;;;;5016208;28;20044;-73
2023/07/21 03:08:19;;;;;;;4.05;2.63;;;;;;;;;;5008807;28;20906;-73
2023/07/21 03:10:44;;;;;;;3.03;2.40;;;;;;;;;;5017330;28;20048;-74
2023/07/21 03:13:10;;;;;;;4.63;2.58;;;;;;;;;;5008465;28;20065;-73
2023/07/21 03:15:38;;;;;;;4.50;2.88;;;;;;;;;;4997973;28;20033;-72
2023/07/21 03:18:04;;;;;;;3.17;2.70;;;;;;;;;;5031109;28;20088;-72
2023/07/21 03:20:29;;;;;;;3.88;2.90;;;;;;;;;;4998513;28;20030;-73
2023/07/21 03:22:55;;;;;;;4.05;2.72;;;;;;;;;;4999754;28;20136;-72
2023/07/21 03:25:21;;;;;;;5.47;2.83;;;;;;;;;;4993027;28;20678;-73
2023/07/21 03:27:46;;;;;;;5.53;3.00;;;;;;;;;;5003316;28;20048;-73
2023/07/21 03:30:12;;;;;;;5.35;3.35;;;;;;;;;;5023435;28;20044;-73
2023/07/21 03:32:38;;;;;;;6.07;3.50;;;;;;;;;;5016332;28;20042;-74
2023/07/21 03:35:04;;;;;;;5.43;3.70;;;;;;;;;;5007610;28;20037;-74
2023/07/21 03:37:34;;;;;;;6.03;3.75;;;;;;;;;;5009375;28;20048;-74
2023/07/21 03:40:06;;;;;;;6.55;4.57;;;;;;;;;;5006552;28;20037;-72
2023/07/21 03:42:36;;;;;;;7.03;4.18;;;;;;;;;;5014671;28;20039;-75
2023/07/21 03:45:05;;;;;;;8.18;4.80;;;;;;;;;;5036517;28;20033;-73
2023/07/21 03:47:33;;;;;;;7.65;4.90;;;;;;;;;;5009832;28;20505;-73
2023/07/21 03:49:59;;;;;;;7.28;4.90;;;;;;;;;;5038055;28;20033;-75
2023/07/21 03:52:24;;;;;;;6.28;4.68;;;;;;;;;;5027884;28;20044;-73
2023/07/21 03:54:52;;;;;;;6.63;4.32;;;;;;;;;;5026892;28;20645;-73
2023/07/21 03:57:18;;;;;;;7.75;3.95;;;;;;;;;;5006973;28;20037;-74
2023/07/21 03:59:43;;;;;;;7.53;3.92;;;;;;;;;;5024313;28;20044;-74
2023/07/21 04:02:09;;;;;;;7.72;4.15;;;;;;;;;;5008552;28;20037;-74
2023/07/21 04:04:34;;;;;;;6.15;4.13;;;;;;;;;;5021122;28;20052;-74
2023/07/21 04:07:02;;;;;;;6.43;4.10;;;;;;;;;;5026320;28;20062;-73
2023/07/21 04:09:30;;;;;;;7.47;4.40;;;;;;;;;;5027817;28;20037;-73
2023/07/21 04:11:55;;;;;;;6.88;4.30;;;;;;;;;;5025024;28;20041;-74
2023/07/21 04:14:20;;;;;;;6.03;4.50;;;;;;;;;;5012237;28;20157;-73
2023/07/21 04:16:48;;;;;;;6.80;4.15;;;;;;;;;;5023767;28;20039;-73
2023/07/21 04:19:13;;;;;;;9.02;3.90;;;;;;;;;;5035048;28;20033;-72
2023/07/21 04:21:43;;;;;;;6.60;4.00;;;;;;;;;;5039652;28;20392;-73
2023/07/21 04:24:11;;;;;;;7.03;3.95;;;;;;;;;;5055885;28;20497;-74
2023/07/21 04:26:36;;;;;;;7.07;4.47;;;;;;;;;;5030461;28;20045;-74
2023/07/21 04:29:02;;;;;;;10.80;4.85;;;;;;;;;;5027199;28;20030;-74
2023/07/21 04:31:28;;;;;;;10.18;5.55;;;;;;;;;;5032367;28;20025;-74
2023/07/21 04:33:56;;;;;;;9.25;6.38;;;;;;;;;;5016096;28;20076;-74
2023/07/21 04:36:22;;;;;;;11.43;7.10;;;;;;;;;;5008474;28;20046;-74
2023/07/21 04:38:47;;;;;;;14.63;7.60;;;;;;;;;;5011697;28;20041;-74
2023/07/21 04:41:13;;;;;;;11.75;7.82;;;;;;;;;;5006625;28;20409;-74
2023/07/21 04:43:40;;;;;;;11.45;7.18;;;;;;;;;;5033612;28;20123;-73
2023/07/21 04:46:06;;;;;;;14.02;7.22;;;;;;;;;;5016201;28;20048;-73
2023/07/21 04:48:33;;;;;;;10.68;6.28;;;;;;;;;;5001604;28;20045;-72
2023/07/21 04:50:59;;;;;;;8.95;6.30;;;;;;;;;;5001478;28;20029;-73
2023/07/21 04:53:24;;;;;;;11.25;6.53;;;;;;;;;;5004401;28;20048;-73
2023/07/21 04:55:54;;;;;;;12.15;6.82;;;;;;;;;;5007348;28;20029;-74
2023/07/21 04:58:19;;;;;;;12.18;7.28;;;;;;;;;;5020288;28;20125;-73
2023/07/21 05:00:44;;;;;;;11.85;7.45;;;;;;;;;;5023088;28;20921;-74
2023/07/21 05:03:10;;;;;;;12.38;6.70;;;;;;;;;;5022056;28;20109;-73
2023/07/21 05:05:35;;;;;;;14.77;6.80;;;;;;;;;;5020129;28;20134;-69
2023/07/21 05:08:01;;;;;;;11.27;7.30;;;;;;;;;;5016323;28;20044;-69
2023/07/21 05:10:27;;;;;;;11.98;7.57;;;;;;;;;;5016353;28;20910;-68
2023/07/21 05:12:55;;;;;;;14.82;11.57;;;;;;;;;;5019696;28;20140;-68
2023/07/21 05:15:20;;;;;;;21.23;16.58;;;;;;;;;;4993805;28;20041;-68
2023/07/21 05:17:48;;;;;;;21.48;14.27;;;;;;;;;;4994765;28;20046;-68
2023/07/21 05:20:16;;;;;;;13.70;11.10;;;;;;;;;;5028657;28;20033;-68
2023/07/21 05:22:41;;;;;;;12.23;8.65;;;;;;;;;;4997847;28;20973;-68
2023/07/21 05:25:07;;;;;;;18.17;9.15;;;;;;;;;;5011302;28;20049;-67
2023/07/21 05:27:33;;;;;;;20.83;15.32;;;;;;;;;;4995947;28;20073;-70
2023/07/21 05:30:01;;;;;;;32.30;18.05;;;;;;;;;;4995654;28;20038;-70
2023/07/21 05:32:28;;;;;;;23.80;19.17;;;;;;;;;;4991691;28;20126;-69
2023/07/21 05:34:54;;;;;;;23.92;18.23;;;;;;;;;;4998408;28;20403;-68
2023/07/21 05:37:19;;;;;;;26.73;17.92;;;;;;;;;;4995645;28;20037;-69
2023/07/21 05:39:44;;;;;;;21.10;13.77;;;;;;;;;;4997491;28;20033;-69
2023/07/21 05:42:09;;;;;;;16.80;11.95;;;;;;;;;;5028270;28;22228;-69
2023/07/21 05:44:38;;;;;;;18.17;11.50;;;;;;;;;;4998959;28;20124;-68
2023/07/21 05:47:03;;;;;;;13.77;10.75;;;;;;;;;;5004873;28;20053;-68
2023/07/21 05:49:28;;;;;;;13.32;8.85;;;;;;;;;;5031217;28;20571;-68
2023/07/21 05:51:54;;;;;;;16.35;8.32;;;;;;;;;;5024625;28;20044;-69
2023/07/21 05:54:19;;;;;;;9.73;6.63;;;;;;;;;;5021565;28;20067;-69
2023/07/21 05:56:44;;;;;;;19.30;5.07;;;;;;;;;;4999702;28;20041;-69
2023/07/21 05:59:10;;;;;;;8.25;5.15;;;;;;;;;;5016424;28;20095;-69
2023/07/21 06:01:36;;;;;;;8.32;3.88;;;;;;;;;;5020994;28;20049;-68
2023/07/21 06:04:02;;;;;;;6.13;3.22;;;;;;;;;;5050734;28;20707;-72
2023/07/21 06:06:29;;;;;;;10.77;2.30;;;;;;;;;;5035157;28;20045;-72
2023/07/21 06:08:54;;;;;;;7.13;2.30;;;;;;;;;;5017718;28;20516;-70
2023/07/21 06:11:19;;;;;;;17.15;2.00;;;;;;;;;;5003799;28;20048;-72
2023/07/21 06:13:44;;;;;;;10.32;2.35;;;;;;;;;;4999412;28;20132;-72
2023/07/21 06:16:10;;;;;;;4.13;1.73;;;;;;;;;;4998743;28;20037;-72
2023/07/21 06:18:38;;;;;;;4.72;1.95;;;;;;;;;;5005783;28;20655;-71
2023/07/21 06:21:03;;;;;;;6.13;2.13;;;;;;;;;;5017916;28;20029;-71
2023/07/21 06:23:29;;;;;;;5.70;2.33;;;;;;;;;;5042953;28;20036;-71
2023/07/21 06:25:54;;;;;;;6.63;2.63;;;;;;;;;;5001576;28;20138;-69
2023/07/21 06:28:20;;;;;;;4.75;2.03;;;;;;;;;;5016391;28;20183;-71
2023/07/21 06:30:45;;;;;;;4.88;2.50;;;;;;;;;;5022524;28;20055;-72
2023/07/21 06:33:10;;;;;;;11.65;2.45;;;;;;;;;;5017338;28;20066;-72
2023/07/21 06:35:36;;;;;;;21.17;3.13;;;;;;;;;;5021315;28;20037;-72
2023/07/21 06:38:03;;;;;;;5.22;2.92;;;;;;;;;;5020430;28;20973;-71
2023/07/21 06:40:30;;;;;;;13.77;4.93;;;;;;;;;;5019675;28;20032;-72
2023/07/21 06:42:56;;;;;;;10.35;3.85;;;;;;;;;;5018558;28;21028;-72
2023/07/21 06:45:21;;;;;;;10.60;5.60;;;;;;;;;;5017860;28;20041;-68
2023/07/21 06:47:46;;;;;;;8.15;5.15;;;;;;;;;;5020161;28;20048;-69
2023/07/21 06:50:14;;;;;;;12.05;5.72;;;;;;;;;;5019833;28;20086;-69
2023/07/21 06:52:41;;;;;;;10.93;6.43;;;;;;;;;;5020030;28;20052;-69
2023/07/21 06:55:07;;;;;;;14.27;6.70;;;;;;;;;;5016972;28;20041;-69
2023/07/21 06:57:32;;;;;;;9.02;5.07;;;;;;;;;;5019668;28;20124;-69
2023/07/21 06:59:58;;;;;;;12.40;2.70;;;;;;;;;;5015635;28;22490;-69
2023/07/21 07:02:23;;;;;;;6.65;1.80;;;;;;;;;;5018937;28;20037;-69
2023/07/21 07:04:48;;;;;;;4.13;1.60;;;;;;;;;;5017100;28;20044;-68
2023/07/21 07:07:14;;;;;;;5.30;1.45;;;;;;;;;;5030249;28;20046;-68
2023/07/21 07:09:42;;;;;;;52.55;2.92;;;;;;;;;;4997278;28;20037;-68
2023/07/21 07:12:08;;;;;;;4.88;1.48;;;;;;;;;;4999564;28;20041;-68
2023/07/21 07:14:33;;;;;;;2.10;1.20;;;;;;;;;;5014682;28;20037;-69
2023/07/21 07:16:59;;;;;;;6.05;1.30;;;;;;;;;;5012522;28;20033;-69
2023/07/21 07:19:26;;;;;;;3.65;1.52;;;;;;;;;;5015000;28;20036;-69
2023/07/21 07:21:52;;;;;;;7.32;1.45;;;;;;;;;;5013206;28;20048;-68
2023/07/21 07:24:19;;;;;;;4.70;1.67;;;;;;;;;;5030474;28;20634;-69
2023/07/21 07:26:44;;;;;;;5.45;1.60;;;;;;;;;;5032008;28;20063;-68
2023/07/21 07:29:09;;;;;;;7.50;1.45;;;;;;;;;;5019922;28;20585;-71
2023/07/21 07:31:37;;;;;;;6.72;1.30;;;;;;;;;;5020275;28;20064;-72
2023/07/21 07:34:05;;;;;;;4.43;1.35;;;;;;;;;;5019496;28;20045;-73
2023/07/21 07:36:30;;;;;;;2.53;1.00;;;;;;;;;;5018854;28;20036;-73
2023/07/21 07:38:55;;;;;;;3.17;0.90;;;;;;;;;;5016405;28;20452;-73
2023/07/21 07:41:23;;;;;;;4.35;1.00;;;;;;;;;;5020053;28;20076;-73
2023/07/21 07:43:49;;;;;;;2.10;0.80;;;;;;;;;;5046842;28;20439;-74
2023/07/21 07:46:14;;;;;;;2.90;1.10;;;;;;;;;;5014167;28;20048;-73
2023/07/21 07:48:39;;;;;;;3.80;0.98;;;;;;;;;;5041520;28;20029;-73
2023/07/21 07:51:06;;;;;;;1.17;0.80;;;;;;;;;;4995942;28;20181;-75
2023/07/21 07:53:32;;;;;;;1.00;0.80;;;;;;;;;;4997538;28;20029;-73
2023/07/21 07:55:57;;;;;;;2.05;1.10;;;;;;;;;;5000606;28;20115;-74
2023/07/21 07:58:23;;;;;;;3.40;1.05;;;;;;;;;;4977383;28;20553;-73
2023/07/21 08:00:48;;;;;;;2.03;0.90;;;;;;;;;;5027726;28;20337;-73
2023/07/21 08:03:13;;;;;;;3.20;0.98;;;;;;;;;;5000466;28;20049;-73
2023/07/21 08:05:42;;;;;;;2.10;0.80;;;;;;;;;;5011950;28;21898;-73
2023/07/21 08:08:11;;;;;;;2.22;0.80;;;;;;;;;;4998334;28;20397;-73
2023/07/21 08:10:41;;;;;;;9.35;1.33;;;;;;;;;;5027662;28;20116;-73
2023/07/21 08:13:07;;;;;;;5.18;1.10;;;;;;;;;;5003770;28;20025;-73
2023/07/21 08:15:32;;;;;;;2.10;0.70;;;;;;;;;;5012827;28;20044;-73
2023/07/21 08:17:58;;;;;;;2.47;0.75;;;;;;;;;;5018316;28;20038;-73
2023/07/21 08:20:25;;;;;;;3.40;1.10;;;;;;;;;;5017878;28;20160;-74
2023/07/21 08:22:51;;;;;;;2.38;0.80;;;;;;;;;;5014248;28;20064;-70
2023/07/21 08:25:17;;;;;;;9.70;1.10;;;;;;;;;;5013264;28;20426;-69
2023/07/21 08:27:42;;;;;;;6.95;1.17;;;;;;;;;;5031035;28;20049;-69
2023/07/21 08:30:08;;;;;;;3.75;0.95;;;;;;;;;;5012052;28;21956;-71
2023/07/21 08:32:34;;;;;;;2.80;0.85;;;;;;;;;;5011741;28;20156;-70
2023/07/21 08:35:00;;;;;;;3.70;0.85;;;;;;;;;;5013534;28;20215;-74
2023/07/21 08:37:25;;;;;;;2.28;0.90;;;;;;;;;;5012931;28;20623;-70
2023/07/21 08:39:50;;;;;;;1.77;0.77;;;;;;;;;;5012761;28;20084;-70
2023/07/21 08:42:18;;;;;;;1.50;0.73;;;;;;;;;;5012584;28;20048;-70
2023/07/21 08:44:44;;;;;;;6.10;1.00;;;;;;;;;;5014532;28;20285;-70
2023/07/21 08:47:09;;;;;;;1.30;0.63;;;;;;;;;;5013688;28;21862;-71
2023/07/21 08:49:36;;;;;;;5.13;1.00;;;;;;;;;;5014369;28;20047;-72
2023/07/21 08:52:02;;;;;;;2.72;0.98;;;;;;;;;;5013146;28;20067;-70
2023/07/21 08:54:28;;;;;;;2.78;1.10;;;;;;;;;;5014769;28;20037;-70
2023/07/21 08:56:53;;;;;;;1.88;0.80;;;;;;;;;;5012456;28;20041;-71
2023/07/21 08:59:18;;;;;;;3.17;0.80;;;;;;;;;;5014464;28;21934;-69
2023/07/21 09:01:44;;;;;;;3.35;1.00;;;;;;;;;;5013969;28;20294;-71
2023/07/21 09:04:19;;;;;;;4.53;0.90;;;;;;;;;;5011176;28;20029;-72
2023/07/21 09:06:55;;;;;;;1.15;0.63;;;;;;;;;;4994428;28;20115;-67
2023/07/21 09:09:21;;;;;;;2.70;0.85;;;;;;;;;;5013188;28;20041;-72
2023/07/21 09:11:47;;;;;;;2.90;0.98;;;;;;;;;;5012789;28;20122;-70
2023/07/21 09:14:12;;;;;;;2.42;1.10;;;;;;;;;;5009721;28;20048;-70
2023/07/21 09:16:38;;;;;;;4.00;1.10;;;;;;;;;;5012621;28;20751;-69
2023/07/21 09:19:05;;;;;;;2.20;1.10;;;;;;;;;;5012796;28;20037;-67
2023/07/21 09:21:31;;;;;;;1.83;0.90;;;;;;;;;;5011808;28;20034;-69
2023/07/21 09:24:03;;;;;;;1.45;0.90;;;;;;;;;;5008065;28;20356;-68
2023/07/21 09:26:31;;;;;;;1.23;0.80;;;;;;;;;;5020173;28;20043;-74
2023/07/21 09:28:59;;;;;;;2.83;0.77;;;;;;;;;;5023520;28;20151;-72
2023/07/21 09:31:28;;;;;;;5.30;0.93;;;;;;;;;;5048056;28;20781;-72
2023/07/21 09:34:04;;;;;;;4.15;1.17;;;;;;;;;;5001201;28;20038;-72
2023/07/21 09:36:29;;;;;;;9.20;1.38;;;;;;;;;;4990003;28;20441;-74
2023/07/21 09:39:00;;;;;;;1.98;0.80;;;;;;;;;;5011120;28;20049;-73
2023/07/21 09:41:27;;;;;;;3.78;1.00;;;;;;;;;;5011961;28;20035;-72
2023/07/21 09:43:55;;;;;;;7.00;1.45;;;;;;;;;;4996050;28;20471;-71
2023/07/21 09:46:21;;;;;;;3.47;0.90;;;;;;;;;;5014621;28;20037;-71
2023/07/21 09:48:49;;;;;;;1.25;0.77;;;;;;;;;;5015727;28;20167;-72
2023/07/21 09:51:17;;;;;;;20.42;1.42;;;;;;;;;;5015646;28;20033;-72
2023/07/21 09:53:43;;;;;;;2.75;0.90;;;;;;;;;;5016356;28;20119;-71
2023/07/21 09:56:08;;;;;;;13.30;1.50;;;;;;;;;;5015761;28;20090;-70
2023/07/21 09:58:41;;;;;;;15.82;2.08;;;;;;;;;;5045864;28;20338;-72
2023/07/21 10:01:09;;;;;;;14.63;2.67;;;;;;;;;;5014305;28;20307;-72
2023/07/21 10:03:35;;;;;;;5.97;2.20;;;;;;;;;;5043819;28;20036;-73
2023/07/21 10:06:01;;;;;;;9.85;2.45;;;;;;;;;;5026980;28;20033;-72
2023/07/21 10:08:33;;;;;;;6.10;2.00;;;;;;;;;;5015426;28;20043;-72
2023/07/21 10:10:59;;;;;;;6.45;2.17;;;;;;;;;;5015441;28;20056;-71
2023/07/21 10:13:30;;;;;;;6.32;2.50;;;;;;;;;;5015666;28;20040;-72
2023/07/21 10:16:05;;;;;;;6.55;2.60;;;;;;;;;;5017901;28;20037;-71
2023/07/21 10:18:31;;;;;;;21.92;3.85;;;;;;;;;;5047615;28;20578;-70
2023/07/21 10:20:59;;;;;;;12.65;3.35;;;;;;;;;;5019997;28;20123;-69
2023/07/21 10:23:35;;;;;;;6.10;2.72;;;;;;;;;;5012998;28;20587;-68
2023/07/21 10:26:02;;;;;;;7.85;3.22;;;;;;;;;;5016022;28;20048;-70
2023/07/21 10:28:30;;;;;;;12.35;3.28;;;;;;;;;;5010951;28;20923;-70
2023/07/21 10:31:17;;;;;;;5.43;2.80;;;;;;;;;;5015388;28;20053;-69
2023/07/21 10:34:00;;;;;;;7.20;3.15;;;;;;;;;;4996147;28;20125;-69
2023/07/21 10:36:25;;;;;;;3.80;2.53;;;;;;;;;;4993484;28;20063;-70
2023/07/21 10:38:59;;;;;;;4.03;2.30;;;;;;;;;;4997365;28;20083;-69
2023/07/21 10:41:25;;;;;;;3.55;1.90;;;;;;;;;;4995984;28;20033;-72
2023/07/21 10:43:50;;;;;;;20.55;4.72;;;;;;;;;;5027247;28;20119;-71
2023/07/21 10:46:15;;;;;;;5.88;1.90;;;;;;;;;;5009675;28;20060;-73
2023/07/21 10:48:43;;;;;;;4.15;2.08;;;;;;;;;;4996557;28;20053;-73
2023/07/21 10:51:11;;;;;;;5.20;1.83;;;;;;;;;;5007550;28;20429;-71
2023/07/21 10:53:38;;;;;;;5.50;2.00;;;;;;;;;;4995627;28;20033;-71
2023/07/21 10:56:07;;;;;;;7.30;1.67;;;;;;;;;;4999420;28;20629;-72
2023/07/21 10:58:33;;;;;;;3.53;1.70;;;;;;;;;;4996835;28;20774;-74
2023/07/21 11:00:59;;;;;;;5.88;2.10;;;;;;;;;;5015793;28;20125;-71
2023/07/21 11:03:24;;;;;;;8.15;2.00;;;;;;;;;;4999295;28;20030;-72
2023/07/21 11:05:49;;;;;;;8.40;2.03;;;;;;;;;;4997549;28;20034;-69
2023/07/21 11:08:26;;;;;;;11.07;2.30;;;;;;;;;;5013391;28;20044;-72
2023/07/21 11:10:51;;;;;;;8.35;2.13;;;;;;;;;;5018711;28;20621;-72
2023/07/21 11:13:17;;;;;;;9.02;1.95;;;;;;;;;;5019565;28;20087;-70
2023/07/21 11:15:49;;;;;;;8.77;1.80;;;;;;;;;;5018814;28;20044;-71
2023/07/21 11:18:18;;;;;;;8.93;2.20;;;;;;;;;;5018429;28;20040;-72
2023/07/21 11:20:47;;;;;;;8.80;1.90;;;;;;;;;;5018289;28;20618;-70
2023/07/21 11:23:13;;;;;;;6.78;1.77;;;;;;;;;;5018540;28;20041;-70
2023/07/21 11:25:38;;;;;;;8.55;1.90;;;;;;;;;;5017831;28;21019;-72
2023/07/21 11:28:06;;;;;;;5.57;1.70;;;;;;;;;;5018986;28;20130;-72
2023/07/21 11:30:31;;;;;;;7.95;2.05;;;;;;;;;;5021944;28;20167;-73
2023/07/21 11:33:12;;;;;;;28.92;3.53;;;;;;;;;;5016777;28;20037;-70
2023/07/21 11:35:45;;;;;;;7.15;2.10;;;;;;;;;;5018127;28;20037;-69
2023/07/21 11:38:10;;;;;;;10.90;2.50;;;;;;;;;;5017685;28;20674;-73
2023/07/21 11:40:36;;;;;;;9.57;2.67;;;;;;;;;;5046045;28;20037;-69
2023/07/21 11:43:05;;;;;;;8.55;3.60;;;;;;;;;;5016973;28;20843;-70
2023/07/21 11:45:32;;;;;;;7.13;3.70;;;;;;;;;;5014329;28;21056;-69
2023/07/21 11:47:58;;;;;;;9.02;4.20;;;;;;;;;;5013214;28;21567;-70
2023/07/21 11:50:24;;;;;;;13.60;4.68;;;;;;;;;;5009250;28;20041;-70
2023/07/21 11:52:52;;;;;;;23.35;5.80;;;;;;;;;;5010238;28;20041;-71
2023/07/21 11:55:17;;;;;;;16.58;5.78;;;;;;;;;;5031999;28;22237;-70
2023/07/21 11:57:43;;;;;;;11.45;5.32;;;;;;;;;;5016746;28;20082;-68
2023/07/21 12:00:11;;;;;;;14.60;5.28;;;;;;;;;;5028660;28;20036;-71
2023/07/21 12:02:37;;;;;;;15.50;5.38;;;;;;;;;;5030767;28;20037;-71
2023/07/21 12:05:03;;;;;;;21.85;5.93;;;;;;;;;;5046138;28;20402;-69
2023/07/21 12:07:29;;;;;;;16.85;5.97;;;;;;;;;;5043248;28;20106;-70
2023/07/21 12:09:58;;;;;;;17.45;5.40;;;;;;;;;;5030164;28;20033;-70
2023/07/21 12:12:23;;;;;;;22.02;6.30;;;;;;;;;;5012279;28;21414;-69
2023/07/21 12:14:49;;;;;;;14.27;5.97;;;;;;;;;;5046252;28;20047;-71
2023/07/21 12:17:16;;;;;;;28.63;7.05;;;;;;;;;;5006458;28;20033;-70
2023/07/21 12:19:42;;;;;;;34.70;7.90;;;;;;;;;;4996513;28;20078;-69
2023/07/21 12:22:10;;;;;;;17.45;6.68;;;;;;;;;;5005054;28;20087;-70
2023/07/21 12:24:36;;;;;;;16.55;6.88;;;;;;;;;;5024751;28;20068;-71
2023/07/21 12:27:01;;;;;;;20.58;7.50;;;;;;;;;;4982404;28;20100;-70
2023/07/21 12:29:26;;;;;;;19.33;7.75;;;;;;;;;;4988672;28;20072;-70
2023/07/21 12:31:51;;;;;;;17.08;8.13;;;;;;;;;;4987037;28;20045;-72
2023/07/21 12:34:17;;;;;;;28.45;8.07;;;;;;;;;;4995793;28;20029;-70
2023/07/21 12:36:42;;;;;;;21.60;7.07;;;;;;;;;;5019525;28;20533;-72
2023/07/21 12:39:12;;;;;;;21.35;7.75;;;;;;;;;;5014396;28;20045;-71
2023/07/21 12:41:38;;;;;;;17.92;7.53;;;;;;;;;;5012194;28;20033;-68
2023/07/21 12:44:03;;;;;;;18.02;7.38;;;;;;;;;;4996164;28;20045;-69
2023/07/21 12:46:28;;;;;;;16.15;7.30;;;;;;;;;;5007450;28;20989;-68
2023/07/21 12:48:54;;;;;;;16.63;8.27;;;;;;;;;;5009549;28;20029;-68
2023/07/21 12:51:19;;;;;;;23.67;8.43;;;;;;;;;;5010600;28;20052;-71
2023/07/21 12:53:47;;;;;;;14.75;7.20;;;;;;;;;;5022659;28;20545;-68
2023/07/21 12:56:12;;;;;;;12.90;7.15;;;;;;;;;;5005976;28;20020;-70
2023/07/21 12:58:40;;;;;;;15.85;7.63;;;;;;;;;;5010078;28;20040;-69
2023/07/21 13:01:07;;;;;;;21.38;8.35;;;;;;;;;;5008403;28;20111;-68
2023/07/21 13:03:33;;;;;;;20.98;8.40;;;;;;;;;;5010445;28;20033;-68
2023/07/21 13:05:58;;;;;;;25.58;8.85;;;;;;;;;;5024913;28;20040;-68
2023/07/21 13:08:24;;;;;;;17.15;8.48;;;;;;;;;;5008427;28;20118;-71
2023/07/21 13:10:51;;;;;;;22.02;8.98;;;;;;;;;;5007781;28;20069;-68
2023/07/21 13:13:17;;;;;;;27.38;9.30;;;;;;;;;;5011521;28;20320;-68
2023/07/21 13:15:45;;;;;;;21.63;8.65;;;;;;;;;;5026497;28;20373;-72
2023/07/21 13:18:10;;;;;;;21.23;8.95;;;;;;;;;;5007926;28;20719;-69
2023/07/21 13:20:40;;;;;;;22.58;9.15;;;;;;;;;;5008434;28;20249;-71
2023/07/21 13:23:05;;;;;;;23.67;9.27;;;;;;;;;;5016684;28;20478;-70
2023/07/21 13:25:31;;;;;;;23.55;8.80;;;;;;;;;;4996008;28;20080;-72
2023/07/21 13:27:56;;;;;;;20.60;8.63;;;;;;;;;;5016776;28;20110;-67
2023/07/21 13:30:22;;;;;;;20.55;8.20;;;;;;;;;;5014075;28;20489;-69
2023/07/21 13:32:48;;;;;;;15.40;7.32;;;;;;;;;;5013409;28;20217;-69
2023/07/21 13:35:13;;;;;;;16.80;7.80;;;;;;;;;;4994626;28;20119;-71
2023/07/21 13:37:41;;;;;;;15.68;7.78;;;;;;;;;;5044415;28;20486;-69
2023/07/21 13:40:07;;;;;;;18.60;8.70;;;;;;;;;;5043997;28;20033;-72
2023/07/21 13:42:33;;;;;;;14.88;8.55;;;;;;;;;;5012674;28;20043;-71
2023/07/21 13:44:58;;;;;;;18.20;8.27;;;;;;;;;;5011950;28;20041;-72
2023/07/21 13:47:24;;;;;;;19.17;9.07;;;;;;;;;;5011880;28;20041;-71
2023/07/21 13:49:49;;;;;;;17.20;8.75;;;;;;;;;;5013851;28;20118;-71
2023/07/21 13:52:15;;;;;;;21.02;8.70;;;;;;;;;;5013153;28;20036;-71
2023/07/21 13:54:40;;;;;;;16.58;8.13;;;;;;;;;;5013745;28;20033;-70
2023/07/21 13:57:07;;;;;;;25.00;9.05;;;;;;;;;;5007250;28;20140;-72
2023/07/21 13:59:32;;;;;;;21.20;8.05;;;;;;;;;;5041839;28;20800;-71
2023/07/21 14:01:57;;;;;;;15.23;7.80;;;;;;;;;;5023373;28;20033;-71
2023/07/21 14:04:23;;;;;;;16.30;7.68;;;;;;;;;;5011976;28;20587;-71
2023/07/21 14:06:48;;;;;;;20.80;8.05;;;;;;;;;;5012211;28;20056;-68
2023/07/21 14:09:16;;;;;;;13.85;8.30;;;;;;;;;;5007972;28;20060;-71
2023/07/21 14:11:42;;;;;;;17.88;8.38;;;;;;;;;;5015151;28;20837;-72
2023/07/21 14:14:07;;;;;;;19.25;8.20;;;;;;;;;;5013008;28;20059;-72
2023/07/21 14:16:32;;;;;;;17.00;8.05;;;;;;;;;;5047101;28;20053;-70
2023/07/21 14:19:03;;;;;;;17.85;8.27;;;;;;;;;;5044992;28;20039;-70
2023/07/21 14:21:29;;;;;;;17.17;9.10;;;;;;;;;;5032037;28;20033;-72
2023/07/21 14:23:55;;;;;;;16.90;8.48;;;;;;;;;;5007845;28;20040;-73
2023/07/21 14:26:21;;;;;;;16.35;7.50;;;;;;;;;;4993298;28;20486;-74
2023/07/21 14:28:49;;;;;;;15.45;7.32;;;;;;;;;;4989660;28;20497;-73
2023/07/21 14:31:14;;;;;;;16.35;7.00;;;;;;;;;;5004776;28;20043;-72
2023/07/21 14:33:40;;;;;;;20.23;6.78;;;;;;;;;;5004613;28;20511;-70
2023/07/21 14:36:05;;;;;;;20.67;6.15;;;;;;;;;;4992894;28;20514;-73